sensor_id;sensor_type;location;lat;lon;timestamp;pressure;altitude;pressure_sealevel;temperature;humidity
44144;BME280;68165;51.920;4.492;2023-07-20T00:02:21;68053.47;;;19.83;94.10
44144;BME280;68165;51.920;4.492;2023-07-20T00:04:46;68061.00;;;19.85;94.05
44144;BME280;68165;51.920;4.492;2023-07-20T00:07:11;68058.50;;;19.88;94.17
44144;BME280;68165;51.920;4.492;2023-07-20T00:09:37;68052.91;;;19.83;94.18
44144;BME280;68165;51.920;4.492;2023-07-20T00:12:02;68054.81;;;19.80;94.16
44144;BME280;68165;51.920;4.492;2023-07-20T00:14:28;68046.72;;;19.77;94.66
44144;BME280;68165;51.920;4.492;2023-07-20T00:16:55;68043.19;;;19.72;95.01
44144;BME280;68165;51.920;4.492;2023-07-20T00:19:25;68042.47;;;19.69;95.29
44144;BME280;68165;51.920;4.492;2023-07-20T00:21:51;68041.91;;;19.68;95.27
44144;BME280;68165;51.920;4.492;2023-07-20T00:24:16;68035.47;;;19.67;95.71
44144;BME280;68165;51.920;4.492;2023-07-20T00:26:42;68039.81;;;19.69;95.69
44144;BME280;68165;51.920;4.492;2023-07-20T00:29:07;68036.84;;;19.64;95.87
44144;BME280;68165;51.920;4.492;2023-07-20T00:31:32;68044.16;;;19.70;95.84
44144;BME280;68165;51.920;4.492;2023-07-20T00:34:00;68040.38;;;19.69;95.58
44144;BME280;68165;51.920;4.492;2023-07-20T00:36:26;68033.22;;;19.65;95.80
44144;BME280;68165;51.920;4.492;2023-07-20T00:38:51;68034.19;;;19.64;95.71
44144;BME280;68165;51.920;4.492;2023-07-20T00:41:17;68029.69;;;19.60;96.24
44144;BME280;68165;51.920;4.492;2023-07-20T00:43:42;68023.66;;;19.56;96.38
44144;BME280;68165;51.920;4.492;2023-07-20T00:46:08;68029.28;;;19.62;96.52
44144;BME280;68165;51.920;4.492;2023-07-20T00:48:34;68039.81;;;19.69;96.06
44144;BME280;68165;51.920;4.492;2023-07-20T00:51:00;68039.25;;;19.68;96.20
44144;BME280;68165;51.920;4.492;2023-07-20T00:53:26;68039.97;;;19.71;96.25
44144;BME280;68165;51.920;4.492;2023-07-20T00:55:52;68034.34;;;19.66;96.34
44144;BME280;68165;51.920;4.492;2023-07-20T00:58:17;68037.56;;;19.67;96.57
44144;BME280;68165;51.920;4.492;2023-07-20T01:00:43;68035.16;;;19.62;96.75
44144;BME280;68165;51.920;4.492;2023-07-20T01:03:08;68033.47;;;19.61;96.95
44144;BME280;68165;51.920;4.492;2023-07-20T01:08:19;68015.78;;;19.49;97.78
44144;BME280;68165;51.920;4.492;2023-07-20T01:10:54;68014.66;;;19.48;97.93
44144;BME280;68165;51.920;4.492;2023-07-20T01:13:22;68008.31;;;19.40;97.67
44144;BME280;68165;51.920;4.492;2023-07-20T01:16:00;68012.66;;;19.42;97.80
44144;BME280;68165;51.920;4.492;2023-07-20T01:18:26;68005.09;;;19.40;97.33
44144;BME280;68165;51.920;4.492;2023-07-20T01:21:00;68001.97;;;19.32;97.21
44144;BME280;68165;51.920;4.492;2023-07-20T01:26:47;68001.59;;;19.34;96.62
44144;BME280;68165;51.920;4.492;2023-07-20T01:31:57;67988.66;;;19.23;96.24
44144;BME280;68165;51.920;4.492;2023-07-20T01:34:23;67984.16;;;19.18;96.54
44144;BME280;68165;51.920;4.492;2023-07-20T01:36:50;67986.81;;;19.18;96.41
44144;BME280;68165;51.920;4.492;2023-07-20T01:39:18;67978.97;;;19.11;96.41
44144;BME280;68165;51.920;4.492;2023-07-20T01:41:45;67974.78;;;19.12;96.61
44144;BME280;68165;51.920;4.492;2023-07-20T01:44:12;67971.78;;;19.07;96.34
44144;BME280;68165;51.920;4.492;2023-07-20T01:46:38;67968.44;;;19.04;96.30
44144;BME280;68165;51.920;4.492;2023-07-20T01:49:03;67971.66;;;19.05;96.33
44144;BME280;68165;51.920;4.492;2023-07-20T01:51:28;67967.72;;;19.01;96.38
44144;BME280;68165;51.920;4.492;2023-07-20T01:53:53;67958.47;;;18.98;96.18
44144;BME280;68165;51.920;4.492;2023-07-20T01:56:20;67952.31;;;18.92;96.59
44144;BME280;68165;51.920;4.492;2023-07-20T01:58:45;67953.81;;;18.91;96.62
44144;BME280;68165;51.920;4.492;2023-07-20T02:01:10;67948.78;;;18.87;96.74
44144;BME280;68165;51.920;4.492;2023-07-20T02:03:36;67950.88;;;18.86;96.71
44144;BME280;68165;51.920;4.492;2023-07-20T02:06:01;67948.22;;;18.86;96.72
44144;BME280;68165;51.920;4.492;2023-07-20T02:08:26;67947.09;;;18.85;97.10
44144;BME280;68165;51.920;4.492;2023-07-20T02:10:51;67945.25;;;18.81;97.06
44144;BME280;68165;51.920;4.492;2023-07-20T02:13:18;67934.34;;;18.76;97.19
44144;BME280;68165;51.920;4.492;2023-07-20T02:15:43;67935.31;;;18.74;97.68
44144;BME280;68165;51.920;4.492;2023-07-20T02:18:09;67930.97;;;18.73;98.05
44144;BME280;68165;51.920;4.492;2023-07-20T02:20:35;67928.69;;;18.71;98.28
44144;BME280;68165;51.920;4.492;2023-07-20T02:23:01;67924.78;;;18.67;98.10
44144;BME280;68165;51.920;4.492;2023-07-20T02:25:26;67925.91;;;18.68;98.28
44144;BME280;68165;51.920;4.492;2023-07-20T02:27:52;67931.91;;;18.71;98.08
44144;BME280;68165;51.920;4.492;2023-07-20T02:30:17;67935.13;;;18.72;97.82
44144;BME280;68165;51.920;4.492;2023-07-20T02:32:43;67932.47;;;18.72;97.70
44144;BME280;68165;51.920;4.492;2023-07-20T02:35:13;67931.34;;;18.71;97.72
44144;BME280;68165;51.920;4.492;2023-07-20T02:37:39;67924.22;;;18.67;97.70
44144;BME280;68165;51.920;4.492;2023-07-20T02:40:04;67924.63;;;18.65;97.66
44144;BME280;68165;51.920;4.492;2023-07-20T02:42:30;67916.34;;;18.60;97.60
44144;BME280;68165;51.920;4.492;2023-07-20T02:44:56;67921.25;;;18.62;97.72
44144;BME280;68165;51.920;4.492;2023-07-20T02:47:21;67923.66;;;18.66;97.48
44144;BME280;68165;51.920;4.492;2023-07-20T02:49:46;67932.66;;;18.74;97.10
44144;BME280;68165;51.920;4.492;2023-07-20T02:52:12;67942.59;;;18.81;96.74
44144;BME280;68165;51.920;4.492;2023-07-20T02:54:37;67950.63;;;18.91;96.48
44144;BME280;68165;51.920;4.492;2023-07-20T02:57:03;67960.56;;;18.97;96.09
44144;BME280;68165;51.920;4.492;2023-07-20T02:59:28;67961.69;;;18.98;95.52
44144;BME280;68165;51.920;4.492;2023-07-20T03:01:54;67962.41;;;19.01;94.92
44144;BME280;68165;51.920;4.492;2023-07-20T03:04:20;67966.91;;;19.05;94.57
44144;BME280;68165;51.920;4.492;2023-07-20T03:06:46;67972.53;;;19.10;94.48
44144;BME280;68165;51.920;4.492;2023-07-20T03:09:12;67973.66;;;19.11;93.84
44144;BME280;68165;51.920;4.492;2023-07-20T03:11:37;67980.09;;;19.12;93.53
44144;BME280;68165;51.920;4.492;2023-07-20T03:14:02;67975.88;;;19.13;93.26
44144;BME280;68165;51.920;4.492;2023-07-20T03:16:28;67983.59;;;19.18;92.79
44144;BME280;68165;51.920;4.492;2023-07-20T03:18:53;67980.09;;;19.12;92.96
44144;BME280;68165;51.920;4.492;2023-07-20T03:21:18;67966.91;;;19.05;92.57
44144;BME280;68165;51.920;4.492;2023-07-20T03:23:44;67965.78;;;19.04;92.56
44144;BME280;68165;51.920;4.492;2023-07-20T03:26:09;67967.31;;;19.03;92.41
44144;BME280;68165;51.920;4.492;2023-07-20T03:28:35;67960.97;;;18.95;92.37
44144;BME280;68165;51.920;4.492;2023-07-20T03:31:01;67954.00;;;18.94;92.60
44144;BME280;68165;51.920;4.492;2023-07-20T03:33:28;67955.78;;;18.88;92.66
44144;BME280;68165;51.920;4.492;2023-07-20T03:35:54;67938.81;;;18.80;92.78
44144;BME280;68165;51.920;4.492;2023-07-20T03:38:20;67939.09;;;18.75;92.97
44144;BME280;68165;51.920;4.492;2023-07-20T03:40:52;67930.97;;;18.73;93.62
44144;BME280;68165;51.920;4.492;2023-07-20T03:43:18;67928.56;;;18.68;93.63
44144;BME280;68165;51.920;4.492;2023-07-20T03:45:44;67923.66;;;18.66;93.38
44144;BME280;68165;51.920;4.492;2023-07-20T03:48:10;67928.00;;;18.68;93.52
44144;BME280;68165;51.920;4.492;2023-07-20T03:50:36;67924.06;;;18.64;93.70
44144;BME280;68165;51.920;4.492;2023-07-20T03:53:01;67924.06;;;18.64;93.37
44144;BME280;68165;51.920;4.492;2023-07-20T03:55:26;67917.47;;;18.61;93.49
44144;BME280;68165;51.920;4.492;2023-07-20T03:57:52;67917.34;;;18.58;93.82
44144;BME280;68165;51.920;4.492;2023-07-20T04:00:17;67916.78;;;18.58;94.00
44144;BME280;68165;51.920;4.492;2023-07-20T04:02:43;67921.97;;;18.65;93.91
44144;BME280;68165;51.920;4.492;2023-07-20T04:05:08;67930.66;;;18.68;93.85
44144;BME280;68165;51.920;4.492;2023-07-20T04:07:34;67931.13;;;18.75;93.54
44144;BME280;68165;51.920;4.492;2023-07-20T04:09:59;67951.44;;;18.87;93.10
44144;BME280;68165;51.920;4.492;2023-07-20T04:12:24;67959.03;;;18.98;92.97
44144;BME280;68165;51.920;4.492;2023-07-20T04:14:50;67962.97;;;19.02;92.43
44144;BME280;68165;51.920;4.492;2023-07-20T04:17:15;67971.78;;;19.07;91.99
44144;BME280;68165;51.920;4.492;2023-07-20T04:19:40;67971.78;;;19.07;91.78
44144;BME280;68165;51.920;4.492;2023-07-20T04:22:06;67966.19;;;19.02;91.43
44144;BME280;68165;51.920;4.492;2023-07-20T04:24:31;67971.78;;;19.07;91.53
44144;BME280;68165;51.920;4.492;2023-07-20T04:26:56;67979.81;;;19.17;91.13
44144;BME280;68165;51.920;4.492;2023-07-20T04:29:21;67988.09;;;19.22;91.07
44144;BME280;68165;51.920;4.492;2023-07-20T04:31:47;67990.50;;;19.27;90.90
44144;BME280;68165;51.920;4.492;2023-07-20T04:34:12;68001.72;;;19.37;90.21
44144;BME280;68165;51.920;4.492;2023-07-20T04:36:38;68010.56;;;19.42;89.91
44144;BME280;68165;51.920;4.492;2023-07-20T04:39:03;68010.34;;;19.47;89.51
44144;BME280;68165;51.920;4.492;2023-07-20T04:41:30;68016.78;;;19.48;89.02
44144;BME280;68165;51.920;4.492;2023-07-20T04:43:55;68020.53;;;19.49;88.74
44144;BME280;68165;51.920;4.492;2023-07-20T04:46:20;68015.78;;;19.49;88.21
44144;BME280;68165;51.920;4.492;2023-07-20T04:48:46;68026.72;;;19.54;88.09
44144;BME280;68165;51.920;4.492;2023-07-20T04:51:13;68028.56;;;19.59;87.76
44144;BME280;68165;51.920;4.492;2023-07-20T04:53:38;68033.63;;;19.63;87.55
44144;BME280;68165;51.920;4.492;2023-07-20T04:56:03;68033.22;;;19.65;87.40
44144;BME280;68165;51.920;4.492;2023-07-20T04:58:29;68033.22;;;19.65;87.08
44144;BME280;68165;51.920;4.492;2023-07-20T05:00:54;68039.25;;;19.68;86.98
44144;BME280;68165;51.920;4.492;2023-07-20T05:03:19;68056.81;;;19.86;86.33
44144;BME280;68165;51.920;4.492;2023-07-20T05:05:47;68071.28;;;19.97;85.58
44144;BME280;68165;51.920;4.492;2023-07-20T05:08:13;68079.31;;;20.07;84.88
44144;BME280;68165;51.920;4.492;2023-07-20T05:10:38;68071.44;;;20.00;84.92
44144;BME280;68165;51.920;4.492;2023-07-20T05:13:04;68079.72;;;20.05;84.94
44144;BME280;68165;51.920;4.492;2023-07-20T05:15:29;68078.19;;;20.06;84.40
44144;BME280;68165;51.920;4.492;2023-07-20T05:17:55;68087.03;;;20.11;84.37
44144;BME280;68165;51.920;4.492;2023-07-20T05:20:20;68080.84;;;20.06;84.20
44144;BME280;68165;51.920;4.492;2023-07-20T05:22:46;68075.63;;;19.98;84.44
44144;BME280;68165;51.920;4.492;2023-07-20T05:25:11;68071.44;;;20.00;84.03
44144;BME280;68165;51.920;4.492;2023-07-20T05:27:37;68073.69;;;20.02;83.77
44144;BME280;68165;51.920;4.492;2023-07-20T05:30:04;68068.38;;;20.02;83.68
44144;BME280;68165;51.920;4.492;2023-07-20T05:32:29;68073.69;;;20.02;83.40
44144;BME280;68165;51.920;4.492;2023-07-20T05:34:55;68080.28;;;20.05;82.75
44144;BME280;68165;51.920;4.492;2023-07-20T05:37:21;68080.69;;;20.03;82.76
44144;BME280;68165;51.920;4.492;2023-07-20T05:39:46;68070.88;;;19.99;82.93
44144;BME280;68165;51.920;4.492;2023-07-20T05:42:11;68072.97;;;19.98;83.00
44144;BME280;68165;51.920;4.492;2023-07-20T05:44:37;68079.00;;;20.02;82.78
44144;BME280;68165;51.920;4.492;2023-07-20T05:47:02;68079.56;;;20.02;82.54
44144;BME280;68165;51.920;4.492;2023-07-20T05:49:28;68078.19;;;20.06;82.33
44144;BME280;68165;51.920;4.492;2023-07-20T05:51:55;68079.72;;;20.05;82.20
44144;BME280;68165;51.920;4.492;2023-07-20T05:54:21;68077.06;;;20.05;82.07
44144;BME280;68165;51.920;4.492;2023-07-20T05:56:46;68076.50;;;20.04;81.81
44144;BME280;68165;51.920;4.492;2023-07-20T05:59:12;68078.59;;;20.04;81.83
44144;BME280;68165;51.920;4.492;2023-07-20T06:01:37;68080.84;;;20.06;81.44
44144;BME280;68165;51.920;4.492;2023-07-20T06:04:02;68081.53;;;20.09;81.06
44144;BME280;68165;51.920;4.492;2023-07-20T06:06:28;68096.16;;;20.22;80.84
44144;BME280;68165;51.920;4.492;2023-07-20T06:08:54;68141.59;;;20.60;79.69
44144;BME280;68165;51.920;4.492;2023-07-20T06:11:19;68193.47;;;21.09;77.88
44144;BME280;68165;51.920;4.492;2023-07-20T06:13:45;68250.91;;;21.61;76.34
44144;BME280;68165;51.920;4.492;2023-07-20T06:16:10;68294.53;;;21.95;74.60
44144;BME280;68165;51.920;4.492;2023-07-20T06:18:36;68317.91;;;22.21;73.20
44144;BME280;68165;51.920;4.492;2023-07-20T06:21:01;68325.38;;;22.30;71.62
44144;BME280;68165;51.920;4.492;2023-07-20T06:23:27;68340.69;;;22.37;71.48
44144;BME280;68165;51.920;4.492;2023-07-20T06:25:53;68368.59;;;22.67;70.87
44144;BME280;68165;51.920;4.492;2023-07-20T06:28:18;68388.31;;;22.85;69.81
44144;BME280;68165;51.920;4.492;2023-07-20T06:30:44;68369.72;;;22.68;70.41
44144;BME280;68165;51.920;4.492;2023-07-20T06:33:09;68363.53;;;22.62;70.72
44144;BME280;68165;51.920;4.492;2023-07-20T06:35:35;68351.94;;;22.47;71.39
44144;BME280;68165;51.920;4.492;2023-07-20T06:38:01;68340.97;;;22.42;72.03
44144;BME280;68165;51.920;4.492;2023-07-20T06:40:30;68329.72;;;22.32;72.11
44144;BME280;68165;51.920;4.492;2023-07-20T06:42:55;68341.81;;;22.38;72.11
44144;BME280;68165;51.920;4.492;2023-07-20T06:45:21;68361.53;;;22.56;71.02
44144;BME280;68165;51.920;4.492;2023-07-20T06:47:46;68360.13;;;22.59;70.14
44144;BME280;68165;51.920;4.492;2023-07-20T06:50:12;68362.38;;;22.61;69.21
44144;BME280;68165;51.920;4.492;2023-07-20T06:52:37;68372.38;;;22.68;68.46
44144;BME280;68165;51.920;4.492;2023-07-20T06:55:04;68380.31;;;22.75;67.55
44144;BME280;68165;51.920;4.492;2023-07-20T06:57:29;68387.75;;;22.84;67.50
44144;BME280;68165;51.920;4.492;2023-07-20T06:59:55;68394.94;;;22.88;67.00
44144;BME280;68165;51.920;4.492;2023-07-20T07:02:20;68387.75;;;22.84;66.80
44144;BME280;68165;51.920;4.492;2023-07-20T07:04:45;68393.25;;;22.87;66.41
44144;BME280;68165;51.920;4.492;2023-07-20T07:07:14;68371.25;;;22.67;66.58
44144;BME280;68165;51.920;4.492;2023-07-20T07:09:39;68368.03;;;22.66;66.82
44144;BME280;68165;51.920;4.492;2023-07-20T07:12:05;68386.63;;;22.83;66.60
44144;BME280;68165;51.920;4.492;2023-07-20T07:14:30;68398.88;;;22.92;65.64
44144;BME280;68165;51.920;4.492;2023-07-20T07:16:56;68396.06;;;22.89;65.34
44144;BME280;68165;51.920;4.492;2023-07-20T07:19:21;68399.44;;;22.92;64.63
44144;BME280;68165;51.920;4.492;2023-07-20T07:21:46;68415.38;;;23.09;63.97
44144;BME280;68165;51.920;4.492;2023-07-20T07:24:12;68435.50;;;23.25;62.62
44144;BME280;68165;51.920;4.492;2023-07-20T07:26:37;68431.41;;;23.18;62.38
44144;BME280;68165;51.920;4.492;2023-07-20T07:29:03;68437.75;;;23.27;62.31
44144;BME280;68165;51.920;4.492;2023-07-20T07:31:29;68453.09;;;23.43;61.98
44144;BME280;68165;51.920;4.492;2023-07-20T07:33:55;68476.81;;;23.64;61.38
44144;BME280;68165;51.920;4.492;2023-07-20T07:36:21;68499.34;;;23.84;60.09
44144;BME280;68165;51.920;4.492;2023-07-20T07:38:46;68511.75;;;23.95;58.80
44144;BME280;68165;51.920;4.492;2023-07-20T07:41:11;68527.97;;;24.08;57.74
44144;BME280;68165;51.920;4.492;2023-07-20T07:43:38;68519.66;;;24.02;57.10
44144;BME280;68165;51.920;4.492;2023-07-20T07:46:04;68526.69;;;24.04;56.47
44144;BME280;68165;51.920;4.492;2023-07-20T07:48:29;68550.53;;;24.28;56.11
44144;BME280;68165;51.920;4.492;2023-07-20T07:50:54;68567.59;;;24.46;55.10
44144;BME280;68165;51.920;4.492;2023-07-20T07:53:20;68583.25;;;24.57;54.97
44144;BME280;68165;51.920;4.492;2023-07-20T07:55:47;68596.22;;;24.69;53.83
44144;BME280;68165;51.920;4.492;2023-07-20T07:58:13;68612.59;;;24.84;53.40
44144;BME280;68165;51.920;4.492;2023-07-20T08:00:39;68598.63;;;24.73;53.09
44144;BME280;68165;51.920;4.492;2023-07-20T08:03:06;68596.38;;;24.71;52.98
44144;BME280;68165;51.920;4.492;2023-07-20T08:05:33;68594.53;;;24.67;53.11
44144;BME280;68165;51.920;4.492;2023-07-20T08:07:58;68591.84;;;24.67;53.02
44144;BME280;68165;51.920;4.492;2023-07-20T08:10:23;68596.38;;;24.71;52.76
44144;BME280;68165;51.920;4.492;2023-07-20T08:12:49;68622.34;;;24.95;52.14
44144;BME280;68165;51.920;4.492;2023-07-20T08:15:14;68649.44;;;25.19;51.10
44144;BME280;68165;51.920;4.492;2023-07-20T08:17:41;68678.19;;;25.45;50.25
44144;BME280;68165;51.920;4.492;2023-07-20T08:20:07;68693.31;;;25.56;49.93
44144;BME280;68165;51.920;4.492;2023-07-20T08:22:35;68710.94;;;25.74;48.27
44144;BME280;68165;51.920;4.492;2023-07-20T08:25:00;68728.19;;;25.85;48.64
44144;BME280;68165;51.920;4.492;2023-07-20T08:27:25;68730.72;;;25.92;47.60
44144;BME280;68165;51.920;4.492;2023-07-20T08:29:51;68685.69;;;25.54;48.70
44144;BME280;68165;51.920;4.492;2023-07-20T08:32:16;68656.19;;;25.25;49.29
44144;BME280;68165;51.920;4.492;2023-07-20T08:34:41;68618.94;;;24.92;50.31
44144;BME280;68165;51.920;4.492;2023-07-20T08:37:07;68580.56;;;24.57;51.04
44144;BME280;68165;51.920;4.492;2023-07-20T08:39:35;68549.56;;;24.29;52.11
44144;BME280;68165;51.920;4.492;2023-07-20T08:42:01;68525.28;;;24.08;53.38
44144;BME280;68165;51.920;4.492;2023-07-20T08:44:31;68502.59;;;23.85;53.78
44144;BME280;68165;51.920;4.492;2023-07-20T08:46:58;68486.25;;;23.70;54.17
44144;BME280;68165;51.920;4.492;2023-07-20T08:49:25;68464.25;;;23.50;54.70
44144;BME280;68165;51.920;4.492;2023-07-20T08:51:52;68437.34;;;23.29;54.93
44144;BME280;68165;51.920;4.492;2023-07-20T08:54:18;68425.50;;;23.18;55.19
44144;BME280;68165;51.920;4.492;2023-07-20T08:56:45;68413.66;;;23.07;55.74
44144;BME280;68165;51.920;4.492;2023-07-20T08:59:13;68400.72;;;22.96;55.86
44144;BME280;68165;51.920;4.492;2023-07-20T09:01:41;68396.78;;;22.92;55.71
44144;BME280;68165;51.920;4.492;2023-07-20T09:04:08;68400.84;;;22.89;55.67
44144;BME280;68165;51.920;4.492;2023-07-20T09:06:35;68419.00;;;23.07;55.53
44144;BME280;68165;51.920;4.492;2023-07-20T09:09:00;68469.47;;;23.57;54.13
44144;BME280;68165;51.920;4.492;2023-07-20T09:11:25;68508.22;;;23.90;53.15
44144;BME280;68165;51.920;4.492;2023-07-20T09:14:08;68530.94;;;24.13;52.41
44144;BME280;68165;51.920;4.492;2023-07-20T09:16:52;68549.84;;;24.25;51.54
44144;BME280;68165;51.920;4.492;2023-07-20T09:19:18;68549.69;;;24.32;50.89
44144;BME280;68165;51.920;4.492;2023-07-20T09:21:51;68573.38;;;24.53;50.34
44144;BME280;68165;51.920;4.492;2023-07-20T09:24:20;68605.25;;;24.77;49.59
44144;BME280;68165;51.920;4.492;2023-07-20T09:26:47;68642.09;;;25.12;48.07
44144;BME280;68165;51.920;4.492;2023-07-20T09:29:13;68676.50;;;25.43;46.76
44144;BME280;68165;51.920;4.492;2023-07-20T09:31:39;68698.53;;;25.63;46.05
44144;BME280;68165;51.920;4.492;2023-07-20T09:34:07;68715.47;;;25.78;45.31
44144;BME280;68165;51.920;4.492;2023-07-20T09:36:36;68738.63;;;25.99;45.06
44144;BME280;68165;51.920;4.492;2023-07-20T09:39:02;68731.28;;;25.92;44.78
44144;BME280;68165;51.920;4.492;2023-07-20T09:41:29;68724.94;;;25.84;44.12
44144;BME280;68165;51.920;4.492;2023-07-20T09:43:54;68725.06;;;25.87;44.07
44144;BME280;68165;51.920;4.492;2023-07-20T09:46:20;68726.63;;;25.86;44.01
44144;BME280;68165;51.920;4.492;2023-07-20T09:48:52;68687.78;;;25.53;45.14
44144;BME280;68165;51.920;4.492;2023-07-20T09:51:23;68645.91;;;25.13;46.56
44144;BME280;68165;51.920;4.492;2023-07-20T09:53:52;68647.44;;;25.22;47.02
44144;BME280;68165;51.920;4.492;2023-07-20T09:56:21;68657.88;;;25.27;46.81
44144;BME280;68165;51.920;4.492;2023-07-20T09:58:46;68666.78;;;25.32;46.69
44144;BME280;68165;51.920;4.492;2023-07-20T10:01:16;68652.81;;;25.22;47.74
44144;BME280;68165;51.920;4.492;2023-07-20T10:03:44;68627.41;;;24.99;47.71
44144;BME280;68165;51.920;4.492;2023-07-20T10:06:13;68612.16;;;24.86;48.26
44144;BME280;68165;51.920;4.492;2023-07-20T10:08:41;68622.19;;;24.92;48.14
44144;BME280;68165;51.920;4.492;2023-07-20T10:11:08;68605.38;;;24.79;48.26
44144;BME280;68165;51.920;4.492;2023-07-20T10:13:37;68578.31;;;24.55;49.42
44144;BME280;68165;51.920;4.492;2023-07-20T10:16:07;68547.88;;;24.28;50.19
44144;BME280;68165;51.920;4.492;2023-07-20T10:18:38;68568.72;;;24.47;49.71
44144;BME280;68165;51.920;4.492;2023-07-20T10:21:07;68523.31;;;24.11;50.42
44144;BME280;68165;51.920;4.492;2023-07-20T10:23:34;68498.25;;;23.83;51.18
44144;BME280;68165;51.920;4.492;2023-07-20T10:26:01;68486.81;;;23.71;51.61
44144;BME280;68165;51.920;4.492;2023-07-20T10:28:27;68488.78;;;23.77;50.86
44144;BME280;68165;51.920;4.492;2023-07-20T10:30:53;68516.84;;;24.00;50.47
44144;BME280;68165;51.920;4.492;2023-07-20T10:33:19;68550.69;;;24.30;49.62
44144;BME280;68165;51.920;4.492;2023-07-20T10:35:52;68572.66;;;24.50;49.32
44144;BME280;68165;51.920;4.492;2023-07-20T10:38:17;68585.66;;;24.62;48.65
44144;BME280;68165;51.920;4.492;2023-07-20T10:40:54;68612.03;;;24.83;48.24
44144;BME280;68165;51.920;4.492;2023-07-20T10:43:19;68613.59;;;24.92;47.82
44144;BME280;68165;51.920;4.492;2023-07-20T10:45:49;68620.06;;;24.93;47.29
44144;BME280;68165;51.920;4.492;2023-07-20T10:48:22;68631.34;;;25.03;47.05
44144;BME280;68165;51.920;4.492;2023-07-20T10:51:14;68664.53;;;25.30;46.44
44144;BME280;68165;51.920;4.492;2023-07-20T10:53:44;68675.38;;;25.42;45.93
44144;BME280;68165;51.920;4.492;2023-07-20T10:56:19;68667.47;;;25.35;45.91
44144;BME280;68165;51.920;4.492;2023-07-20T10:58:45;68652.25;;;25.21;45.69
44144;BME280;68165;51.920;4.492;2023-07-20T11:01:16;68642.09;;;25.12;46.13
44144;BME280;68165;51.920;4.492;2023-07-20T11:03:42;68660.00;;;25.26;45.54
44144;BME280;68165;51.920;4.492;2023-07-20T11:09:14;68700.81;;;25.65;44.49
44144;BME280;68165;51.920;4.492;2023-07-20T11:11:47;68691.75;;;25.57;44.22
44144;BME280;68165;51.920;4.492;2023-07-20T11:14:23;68687.09;;;25.50;44.24
44144;BME280;68165;51.920;4.492;2023-07-20T11:16:50;68687.09;;;25.50;44.07
44144;BME280;68165;51.920;4.492;2023-07-20T11:19:24;68697.97;;;25.63;44.46
44144;BME280;68165;51.920;4.492;2023-07-20T11:21:55;68744.69;;;26.02;43.47
44144;BME280;68165;51.920;4.492;2023-07-20T11:24:21;68795.69;;;26.50;42.03
44144;BME280;68165;51.920;4.492;2023-07-20T11:26:48;68817.00;;;26.67;40.92
44144;BME280;68165;51.920;4.492;2023-07-20T11:29:16;68823.78;;;26.73;40.09
44144;BME280;68165;51.920;4.492;2023-07-20T11:31:42;68840.31;;;26.90;39.31
44144;BME280;68165;51.920;4.492;2023-07-20T11:34:11;68858.97;;;27.07;38.92
44144;BME280;68165;51.920;4.492;2023-07-20T11:36:44;68859.53;;;27.07;38.94
44144;BME280;68165;51.920;4.492;2023-07-20T11:39:11;68864.91;;;27.17;38.77
44144;BME280;68165;51.920;4.492;2023-07-20T11:41:37;68885.97;;;27.29;38.52
44144;BME280;68165;51.920;4.492;2023-07-20T11:44:04;68881.56;;;27.27;37.48
44144;BME280;68165;51.920;4.492;2023-07-20T11:46:33;68873.66;;;27.20;37.45
44144;BME280;68165;51.920;4.492;2023-07-20T11:48:59;68877.59;;;27.23;37.22
44144;BME280;68165;51.920;4.492;2023-07-20T11:51:28;68872.97;;;27.17;37.32
44144;BME280;68165;51.920;4.492;2023-07-20T11:53:55;68869.00;;;27.13;37.19
44144;BME280;68165;51.920;4.492;2023-07-20T11:56:21;68861.81;;;27.09;37.69
44144;BME280;68165;51.920;4.492;2023-07-20T11:58:48;68856.16;;;27.04;38.09
44144;BME280;68165;51.920;4.492;2023-07-20T12:01:14;68864.50;;;27.09;38.13
44144;BME280;68165;51.920;4.492;2023-07-20T12:03:41;68887.09;;;27.30;37.45
44144;BME280;68165;51.920;4.492;2023-07-20T12:06:11;68901.22;;;27.42;37.54
44144;BME280;68165;51.920;4.492;2023-07-20T12:08:43;68901.94;;;27.45;37.14
44144;BME280;68165;51.920;4.492;2023-07-20T12:11:09;68914.94;;;27.57;36.89
44144;BME280;68165;51.920;4.492;2023-07-20T12:13:43;68938.41;;;27.73;36.53
44144;BME280;68165;51.920;4.492;2023-07-20T12:16:14;68954.50;;;27.92;36.25
44144;BME280;68165;51.920;4.492;2023-07-20T12:18:41;68962.00;;;28.01;36.01
44144;BME280;68165;51.920;4.492;2023-07-20T12:21:07;68950.44;;;27.86;35.82
44144;BME280;68165;51.920;4.492;2023-07-20T12:23:40;68945.47;;;27.84;35.79
44144;BME280;68165;51.920;4.492;2023-07-20T12:26:09;68938.13;;;27.78;36.17
44144;BME280;68165;51.920;4.492;2023-07-20T12:28:42;68926.81;;;27.68;36.45
44144;BME280;68165;51.920;4.492;2023-07-20T12:31:10;68923.97;;;27.65;36.27
44144;BME280;68165;51.920;4.492;2023-07-20T12:33:36;68925.25;;;27.69;36.02
44144;BME280;68165;51.920;4.492;2023-07-20T12:36:02;68926.25;;;27.67;35.58
44144;BME280;68165;51.920;4.492;2023-07-20T12:38:27;68923.97;;;27.65;36.05
44144;BME280;68165;51.920;4.492;2023-07-20T12:40:54;68926.53;;;27.63;36.28
44144;BME280;68165;51.920;4.492;2023-07-20T12:43:22;68914.50;;;27.59;36.36
44144;BME280;68165;51.920;4.492;2023-07-20T12:45:47;68923.84;;;27.63;36.52
44144;BME280;68165;51.920;4.492;2023-07-20T12:48:13;68931.22;;;27.69;36.19
44144;BME280;68165;51.920;4.492;2023-07-20T12:50:39;68933.44;;;27.71;36.20
44144;BME280;68165;51.920;4.492;2023-07-20T12:53:04;68930.75;;;27.71;36.19
44144;BME280;68165;51.920;4.492;2023-07-20T12:55:29;68943.75;;;27.83;36.15
44144;BME280;68165;51.920;4.492;2023-07-20T12:57:56;68959.03;;;27.96;35.54
44144;BME280;68165;51.920;4.492;2023-07-20T13:00:22;68975.44;;;28.11;35.51
44144;BME280;68165;51.920;4.492;2023-07-20T13:02:48;68986.75;;;28.21;35.27
44144;BME280;68165;51.920;4.492;2023-07-20T13:05:14;68987.31;;;28.22;35.15
44144;BME280;68165;51.920;4.492;2023-07-20T13:07:40;68993.97;;;28.25;34.79
44144;BME280;68165;51.920;4.492;2023-07-20T13:10:07;68993.53;;;28.27;35.07